Time;durP1;ratioP1;P1;durP2;ratioP2;P2;SDS_P1;SDS_P2;PMS_P1;PMS_P2;Temp;Humidity;BMP_temperature;BMP_pressure;BME280_temperature;BME280_humidity;BME280_pressure;Samples;Min_cycle;Max_cycle;Signal;HPM_P1;HPM_P2
2023/07/01 00:02:04;;;;;;;4.50;2.17;;;;;;;;;;5061380;28;20697;-70
2023/07/01 00:04:32;;;;;;;4.30;1.73;;;;;;;;;;5066375;28;20048;-70
2023/07/01 00:06:58;;;;;;;4.80;1.90;;;;;;;;;;5063493;28;20053;-70
2023/07/01 00:09:25;;;;;;;3.95;2.00;;;;;;;;;;5064115;28;20099;-70
2023/07/01 00:11:51;;;;;;;2.05;1.65;;;;;;;;;;5064171;28;20076;-71
2023/07/01 00:14:18;;;;;;;8.75;2.10;;;;;;;;;;5063789;28;20080;-70
2023/07/01 00:16:44;;;;;;;3.47;1.70;;;;;;;;;;5053129;28;20057;-70
2023/07/01 00:19:11;;;;;;;5.10;2.40;;;;;;;;;;5063236;28;20049;-69
2023/07/01 00:21:37;;;;;;;2.50;1.63;;;;;;;;;;5064055;28;20080;-69
2023/07/01 00:24:04;;;;;;;3.65;2.03;;;;;;;;;;5053267;28;20144;-70
2023/07/01 00:26:31;;;;;;;7.65;2.50;;;;;;;;;;5046102;28;20665;-69
2023/07/01 00:28:57;;;;;;;4.88;2.05;;;;;;;;;;5050274;28;20103;-71
2023/07/01 00:31:24;;;;;;;5.35;2.38;;;;;;;;;;5053295;28;20110;-70
2023/07/01 00:33:51;;;;;;;3.35;2.05;;;;;;;;;;5044580;28;20068;-70
2023/07/01 00:36:17;;;;;;;3.95;2.13;;;;;;;;;;5050427;28;20076;-70
2023/07/01 00:38:43;;;;;;;5.07;1.95;;;;;;;;;;5051473;28;20231;-70
2023/07/01 00:41:10;;;;;;;2.83;2.03;;;;;;;;;;5045315;28;20080;-70
2023/07/01 00:43:36;;;;;;;5.10;2.10;;;;;;;;;;5057433;28;20045;-70
2023/07/01 00:46:03;;;;;;;6.72;2.45;;;;;;;;;;5056683;28;20073;-70
2023/07/01 00:48:30;;;;;;;5.90;2.28;;;;;;;;;;5054613;28;20053;-70
2023/07/01 00:50:56;;;;;;;5.25;2.40;;;;;;;;;;5062869;28;20532;-70
2023/07/01 00:53:23;;;;;;;4.93;2.50;;;;;;;;;;5063700;28;20053;-69
2023/07/01 00:55:51;;;;;;;2.88;1.88;;;;;;;;;;5057076;28;20143;-70
2023/07/01 00:58:18;;;;;;;9.13;2.25;;;;;;;;;;5054620;28;20052;-70
2023/07/01 01:00:44;;;;;;;5.75;2.17;;;;;;;;;;5056849;28;20517;-69
2023/07/01 01:03:21;;;;;;;10.88;2.90;;;;;;;;;;5049930;28;20053;-70
2023/07/01 01:06:03;;;;;;;5.45;2.42;;;;;;;;;;5068329;28;20143;-69
2023/07/01 01:08:50;;;;;;;4.15;2.47;;;;;;;;;;5061574;28;20107;-69
2023/07/01 01:11:17;;;;;;;5.78;2.58;;;;;;;;;;5046239;28;20445;-70
2023/07/01 01:13:44;;;;;;;7.30;2.88;;;;;;;;;;5045944;28;20077;-69
2023/07/01 01:16:11;;;;;;;6.47;2.83;;;;;;;;;;5056495;28;20183;-69
2023/07/01 01:18:39;;;;;;;8.18;2.75;;;;;;;;;;5041476;28;20141;-70
2023/07/01 01:21:06;;;;;;;9.23;2.78;;;;;;;;;;5042980;28;20100;-70
2023/07/01 01:23:36;;;;;;;9.43;2.95;;;;;;;;;;5052972;28;20057;-70
2023/07/01 01:26:07;;;;;;;4.00;2.30;;;;;;;;;;5051567;28;20549;-69
2023/07/01 01:28:35;;;;;;;7.95;2.25;;;;;;;;;;5060365;28;20542;-70
2023/07/01 01:31:01;;;;;;;5.32;2.28;;;;;;;;;;5025191;28;20144;-70
2023/07/01 01:33:28;;;;;;;4.05;2.50;;;;;;;;;;5033940;28;20490;-70
2023/07/01 01:35:59;;;;;;;6.97;2.65;;;;;;;;;;5058406;28;20134;-70
2023/07/01 01:38:29;;;;;;;3.33;2.10;;;;;;;;;;5046119;28;20063;-69
2023/07/01 01:40:58;;;;;;;5.00;2.35;;;;;;;;;;5047865;28;20594;-70
2023/07/01 01:43:45;;;;;;;3.50;1.90;;;;;;;;;;5046232;28;20057;-69
2023/07/01 01:46:12;;;;;;;5.03;2.67;;;;;;;;;;5037296;28;20045;-69
2023/07/01 01:48:39;;;;;;;3.97;2.15;;;;;;;;;;5047888;28;20057;-69
2023/07/01 01:51:07;;;;;;;4.00;2.03;;;;;;;;;;5046806;28;20572;-70
2023/07/01 01:53:34;;;;;;;3.63;1.90;;;;;;;;;;5053947;28;20064;-70
2023/07/01 01:56:01;;;;;;;5.18;2.25;;;;;;;;;;5056488;28;20057;-68
2023/07/01 01:58:28;;;;;;;2.05;1.85;;;;;;;;;;5057952;28;20049;-69
2023/07/01 02:00:55;;;;;;;6.65;2.50;;;;;;;;;;5044915;28;20597;-69
2023/07/01 02:03:21;;;;;;;4.32;2.15;;;;;;;;;;5036604;28;20514;-70
2023/07/01 02:05:48;;;;;;;4.25;2.08;;;;;;;;;;5073347;28;20611;-68
2023/07/01 02:08:14;;;;;;;4.38;2.20;;;;;;;;;;5047330;28;20535;-70
2023/07/01 02:10:41;;;;;;;3.45;2.33;;;;;;;;;;5045584;28;20142;-69
2023/07/01 02:13:07;;;;;;;7.10;2.20;;;;;;;;;;5052616;28;20679;-69
2023/07/01 02:15:33;;;;;;;10.27;2.13;;;;;;;;;;5051365;28;20069;-70
2023/07/01 02:18:00;;;;;;;4.07;1.88;;;;;;;;;;5063132;28;20053;-69
2023/07/01 02:20:26;;;;;;;4.78;2.10;;;;;;;;;;5052175;28;20061;-70
2023/07/01 02:22:53;;;;;;;4.57;2.22;;;;;;;;;;5046678;28;20084;-70
2023/07/01 02:25:19;;;;;;;5.93;2.65;;;;;;;;;;5034351;28;20131;-69
2023/07/01 02:27:46;;;;;;;5.78;2.55;;;;;;;;;;5060914;28;20519;-70
2023/07/01 02:30:12;;;;;;;3.72;2.45;;;;;;;;;;5062608;28;20111;-70
2023/07/01 02:32:39;;;;;;;10.23;2.40;;;;;;;;;;5055705;28;20053;-70
2023/07/01 02:35:06;;;;;;;9.27;2.30;;;;;;;;;;5046372;28;20168;-70
2023/07/01 02:37:32;;;;;;;4.22;2.63;;;;;;;;;;5052425;28;20085;-69
2023/07/01 02:39:59;;;;;;;14.43;2.85;;;;;;;;;;5062613;28;20126;-69
2023/07/01 02:42:26;;;;;;;4.07;2.25;;;;;;;;;;5060817;28;20049;-69
2023/07/01 02:44:52;;;;;;;4.88;2.35;;;;;;;;;;5064305;28;20136;-69
2023/07/01 02:47:19;;;;;;;5.03;2.00;;;;;;;;;;5045290;28;20504;-69
2023/07/01 02:49:45;;;;;;;5.93;1.98;;;;;;;;;;5045562;28;20061;-69
2023/07/01 02:52:15;;;;;;;2.65;1.95;;;;;;;;;;5047629;28;20057;-70
2023/07/01 02:54:41;;;;;;;4.07;2.40;;;;;;;;;;5046219;28;20452;-69
2023/07/01 02:57:08;;;;;;;7.25;2.53;;;;;;;;;;5050323;28;20659;-70
2023/07/01 02:59:36;;;;;;;3.42;2.00;;;;;;;;;;5058945;28;20057;-69
2023/07/01 03:02:04;;;;;;;8.35;3.05;;;;;;;;;;5050470;28;20500;-69
2023/07/01 03:04:33;;;;;;;7.00;2.13;;;;;;;;;;5046566;28;20053;-69
2023/07/01 03:07:00;;;;;;;6.70;2.63;;;;;;;;;;5052280;28;20083;-70
2023/07/01 03:09:27;;;;;;;9.38;2.60;;;;;;;;;;5054078;28;20049;-69
2023/07/01 03:11:54;;;;;;;3.65;2.30;;;;;;;;;;5051710;28;20054;-69
2023/07/01 03:14:20;;;;;;;5.65;2.47;;;;;;;;;;5063355;28;20218;-69
2023/07/01 03:16:49;;;;;;;5.68;2.33;;;;;;;;;;5038930;28;20552;-69
2023/07/01 03:19:16;;;;;;;3.38;2.40;;;;;;;;;;5044918;28;20045;-69
2023/07/01 03:21:44;;;;;;;4.75;2.53;;;;;;;;;;5050972;28;20057;-69
2023/07/01 03:24:10;;;;;;;5.40;2.65;;;;;;;;;;5050439;28;20076;-70
2023/07/01 03:26:37;;;;;;;5.75;2.78;;;;;;;;;;5054480;28;20500;-70
2023/07/01 03:29:03;;;;;;;3.75;2.25;;;;;;;;;;5050415;28;20049;-70
2023/07/01 03:31:30;;;;;;;5.72;2.60;;;;;;;;;;5054967;28;20056;-70
2023/07/01 03:33:56;;;;;;;7.60;2.80;;;;;;;;;;5053508;28;20556;-69
2023/07/01 03:36:23;;;;;;;2.15;1.80;;;;;;;;;;5046346;28;20057;-70
2023/07/01 03:38:49;;;;;;;6.63;2.70;;;;;;;;;;5026625;28;20107;-70
2023/07/01 03:41:16;;;;;;;4.03;2.40;;;;;;;;;;5058512;28;20061;-68
2023/07/01 03:43:42;;;;;;;3.70;2.35;;;;;;;;;;5049724;28;20111;-70
2023/07/01 03:46:09;;;;;;;3.42;2.40;;;;;;;;;;5064614;28;20143;-69
2023/07/01 03:48:35;;;;;;;13.02;2.63;;;;;;;;;;5053406;28;20056;-69
2023/07/01 03:51:02;;;;;;;2.33;2.10;;;;;;;;;;5062034;28;20055;-69
2023/07/01 03:53:28;;;;;;;6.03;2.38;;;;;;;;;;5050315;28;20115;-71
2023/07/01 03:55:55;;;;;;;5.43;2.70;;;;;;;;;;5049809;28;20136;-70
2023/07/01 03:58:21;;;;;;;5.55;2.70;;;;;;;;;;5059704;28;20139;-69
2023/07/01 04:00:50;;;;;;;5.90;3.05;;;;;;;;;;5063768;28;20080;-70
2023/07/01 04:03:17;;;;;;;4.60;2.88;;;;;;;;;;5053875;28;20045;-69
2023/07/01 04:05:43;;;;;;;6.18;3.13;;;;;;;;;;5055476;28;20115;-70
2023/07/01 04:08:10;;;;;;;6.18;2.90;;;;;;;;;;5057729;28;20135;-69
2023/07/01 04:10:36;;;;;;;4.60;2.58;;;;;;;;;;5060771;28;20059;-70
2023/07/01 04:13:04;;;;;;;5.32;3.25;;;;;;;;;;5050407;28;20120;-69
2023/07/01 04:15:31;;;;;;;7.72;3.45;;;;;;;;;;5050921;28;20147;-69
2023/07/01 04:17:57;;;;;;;5.57;3.10;;;;;;;;;;5050922;28;20057;-69
2023/07/01 04:20:24;;;;;;;4.18;3.13;;;;;;;;;;5063916;28;20083;-70
2023/07/01 04:22:51;;;;;;;4.60;3.55;;;;;;;;;;5063527;28;20551;-69
2023/07/01 04:25:17;;;;;;;4.35;3.10;;;;;;;;;;5038669;28;20089;-69
2023/07/01 04:27:43;;;;;;;3.42;3.00;;;;;;;;;;5048276;28;20057;-70
2023/07/01 04:30:12;;;;;;;5.13;3.47;;;;;;;;;;5060765;28;20045;-71
2023/07/01 04:32:39;;;;;;;4.28;3.30;;;;;;;;;;5051029;28;20096;-70
2023/07/01 04:35:06;;;;;;;3.35;3.05;;;;;;;;;;5060344;28;20053;-70
2023/07/01 04:37:33;;;;;;;5.60;3.20;;;;;;;;;;5062457;28;20059;-70
2023/07/01 04:40:00;;;;;;;4.13;3.08;;;;;;;;;;5062379;28;20098;-69
2023/07/01 04:42:26;;;;;;;7.32;3.58;;;;;;;;;;5063882;28;20052;-70
2023/07/01 04:44:56;;;;;;;5.75;3.00;;;;;;;;;;5062011;28;20057;-70
2023/07/01 04:47:23;;;;;;;3.25;2.95;;;;;;;;;;5062881;28;20115;-69
2023/07/01 04:49:52;;;;;;;6.35;2.70;;;;;;;;;;5051505;28;20115;-70
2023/07/01 04:52:23;;;;;;;3.35;2.78;;;;;;;;;;5024879;28;20057;-70
2023/07/01 04:54:50;;;;;;;3.17;2.88;;;;;;;;;;5063385;28;20608;-70
2023/07/01 04:57:17;;;;;;;9.07;3.10;;;;;;;;;;5042832;28;20532;-70
2023/07/01 04:59:43;;;;;;;5.30;3.05;;;;;;;;;;5063285;28;20118;-70
2023/07/01 05:02:09;;;;;;;3.40;3.10;;;;;;;;;;5027937;28;20053;-70
2023/07/01 05:04:36;;;;;;;8.75;3.45;;;;;;;;;;5066735;28;20044;-70
2023/07/01 05:07:03;;;;;;;5.05;3.30;;;;;;;;;;5064489;28;20527;-69
2023/07/01 05:09:30;;;;;;;6.45;3.15;;;;;;;;;;5057844;28;20058;-69
2023/07/01 05:11:56;;;;;;;9.90;3.97;;;;;;;;;;5053866;28;20057;-70
2023/07/01 05:14:23;;;;;;;3.88;3.47;;;;;;;;;;5048162;28;20057;-69
2023/07/01 05:16:49;;;;;;;5.05;3.53;;;;;;;;;;5042463;28;20085;-70
2023/07/01 05:19:16;;;;;;;5.57;3.72;;;;;;;;;;5055668;28;20134;-70
2023/07/01 05:21:52;;;;;;;4.13;3.72;;;;;;;;;;5061335;28;20650;-70
2023/07/01 05:24:19;;;;;;;5.80;3.70;;;;;;;;;;5046660;28;20140;-70
2023/07/01 05:26:47;;;;;;;4.35;3.92;;;;;;;;;;5045257;28;20061;-70
2023/07/01 05:29:14;;;;;;;4.47;4.07;;;;;;;;;;5056724;28;20056;-70
2023/07/01 05:31:40;;;;;;;6.00;4.10;;;;;;;;;;5055771;28;20059;-70
2023/07/01 05:34:07;;;;;;;6.68;4.47;;;;;;;;;;5045451;28;20053;-70
2023/07/01 05:36:33;;;;;;;4.68;3.90;;;;;;;;;;5041682;28;20145;-70
2023/07/01 05:39:00;;;;;;;4.53;3.80;;;;;;;;;;5062316;28;20147;-70
2023/07/01 05:41:26;;;;;;;4.90;4.43;;;;;;;;;;5059001;28;20053;-69
2023/07/01 05:43:54;;;;;;;4.30;3.90;;;;;;;;;;5049480;28;20060;-69
2023/07/01 05:46:20;;;;;;;11.25;4.63;;;;;;;;;;5045924;28;20115;-69
2023/07/01 05:48:47;;;;;;;6.20;4.57;;;;;;;;;;5059713;28;20052;-70
2023/07/01 05:51:13;;;;;;;5.68;4.35;;;;;;;;;;5050634;28;20045;-70
2023/07/01 05:53:40;;;;;;;7.03;4.43;;;;;;;;;;5054516;28;20138;-69
2023/07/01 05:56:06;;;;;;;4.43;4.00;;;;;;;;;;5052611;28;20592;-69
2023/07/01 05:58:33;;;;;;;5.25;4.75;;;;;;;;;;5045252;28;20049;-69
2023/07/01 06:00:59;;;;;;;7.43;4.45;;;;;;;;;;5035557;28;20142;-69
2023/07/01 06:03:26;;;;;;;5.60;4.50;;;;;;;;;;5053279;28;20072;-70
2023/07/01 06:05:52;;;;;;;9.02;5.13;;;;;;;;;;5046862;28;20497;-70
2023/07/01 06:08:19;;;;;;;6.05;4.78;;;;;;;;;;5062960;28;20409;-69
2023/07/01 06:10:45;;;;;;;5.88;5.15;;;;;;;;;;5059362;28;20060;-70
2023/07/01 06:13:12;;;;;;;5.88;5.00;;;;;;;;;;5052113;28;20054;-69
2023/07/01 06:15:38;;;;;;;7.75;5.70;;;;;;;;;;5058959;28;20471;-69
2023/07/01 06:18:04;;;;;;;8.55;4.95;;;;;;;;;;5057485;28;20056;-69
2023/07/01 06:20:31;;;;;;;7.38;5.63;;;;;;;;;;5048902;28;20081;-68
2023/07/01 06:22:57;;;;;;;6.10;5.50;;;;;;;;;;5030191;28;20061;-68
2023/07/01 06:25:24;;;;;;;10.20;5.75;;;;;;;;;;5055735;28;20056;-68
2023/07/01 06:27:50;;;;;;;6.93;5.85;;;;;;;;;;5061860;28;20064;-68
2023/07/01 06:30:17;;;;;;;5.78;5.22;;;;;;;;;;5063316;28;20488;-67
2023/07/01 06:32:43;;;;;;;5.97;5.03;;;;;;;;;;5047629;28;20155;-68
2023/07/01 06:35:10;;;;;;;6.53;4.97;;;;;;;;;;5055413;28;20099;-68
2023/07/01 06:37:36;;;;;;;5.88;4.57;;;;;;;;;;5056907;28;20543;-67
2023/07/01 06:40:03;;;;;;;6.43;4.47;;;;;;;;;;5057468;28;20049;-68
2023/07/01 06:42:30;;;;;;;6.63;4.82;;;;;;;;;;5054394;28;20057;-68
2023/07/01 06:44:56;;;;;;;5.60;5.10;;;;;;;;;;5051633;28;20087;-67
2023/07/01 06:47:23;;;;;;;5.60;5.10;;;;;;;;;;5057963;28;20103;-68
2023/07/01 06:49:53;;;;;;;5.50;4.97;;;;;;;;;;5046026;28;20055;-67
2023/07/01 06:52:19;;;;;;;6.00;4.72;;;;;;;;;;5057738;28;20435;-67
2023/07/01 06:54:46;;;;;;;5.22;4.50;;;;;;;;;;5059684;28;20887;-67
2023/07/01 06:57:14;;;;;;;5.15;4.65;;;;;;;;;;5048111;28;20383;-67
2023/07/01 06:59:40;;;;;;;5.30;4.80;;;;;;;;;;5057685;28;20085;-67
2023/07/01 07:02:07;;;;;;;4.68;4.25;;;;;;;;;;5034738;28;20128;-67
2023/07/01 07:04:33;;;;;;;4.47;4.10;;;;;;;;;;5057406;28;20057;-67
2023/07/01 07:07:00;;;;;;;5.20;4.70;;;;;;;;;;5058284;28;20136;-66
2023/07/01 07:09:26;;;;;;;5.38;4.30;;;;;;;;;;5057089;28;20539;-68
2023/07/01 07:11:54;;;;;;;5.13;4.63;;;;;;;;;;5059272;28;20048;-68
2023/07/01 07:14:22;;;;;;;5.50;4.95;;;;;;;;;;5057146;28;20057;-67
2023/07/01 07:16:49;;;;;;;5.10;4.60;;;;;;;;;;5053722;28;20062;-67
2023/07/01 07:19:15;;;;;;;7.00;5.13;;;;;;;;;;5049092;28;20055;-68
2023/07/01 07:21:42;;;;;;;6.03;5.28;;;;;;;;;;5041311;28;20053;-67
2023/07/01 07:24:08;;;;;;;5.38;4.88;;;;;;;;;;5046205;28;20058;-67
2023/07/01 07:26:37;;;;;;;5.95;5.45;;;;;;;;;;5047246;28;20504;-66
2023/07/01 07:29:03;;;;;;;7.40;4.97;;;;;;;;;;5044630;28;20108;-67
2023/07/01 07:31:30;;;;;;;6.40;5.78;;;;;;;;;;5059254;28;20524;-66
2023/07/01 07:33:56;;;;;;;6.55;5.63;;;;;;;;;;5057457;28;20077;-66
2023/07/01 07:36:23;;;;;;;7.65;6.28;;;;;;;;;;5062240;28;20444;-67
2023/07/01 07:38:50;;;;;;;5.60;5.10;;;;;;;;;;5054405;28;20053;-67
2023/07/01 07:41:16;;;;;;;6.30;5.43;;;;;;;;;;5061675;28;20088;-66
2023/07/01 07:43:42;;;;;;;4.93;4.53;;;;;;;;;;5052762;28;20057;-67
2023/07/01 07:46:09;;;;;;;6.35;5.25;;;;;;;;;;5044038;28;20057;-67
2023/07/01 07:48:35;;;;;;;7.05;5.45;;;;;;;;;;5053689;28;20060;-67
2023/07/01 07:51:02;;;;;;;6.53;5.63;;;;;;;;;;5064193;28;20513;-66
2023/07/01 07:53:28;;;;;;;6.70;5.80;;;;;;;;;;5063611;28;20060;-67
2023/07/01 07:55:54;;;;;;;6.40;5.30;;;;;;;;;;5062543;28;20571;-67
2023/07/01 07:58:21;;;;;;;7.60;5.35;;;;;;;;;;5060200;28;20068;-67
2023/07/01 08:00:50;;;;;;;6.43;5.55;;;;;;;;;;5063336;28;20140;-67
2023/07/01 08:03:16;;;;;;;5.50;4.70;;;;;;;;;;5062470;28;20049;-67
2023/07/01 08:05:43;;;;;;;8.48;4.90;;;;;;;;;;5063327;28;20069;-67
2023/07/01 08:08:09;;;;;;;5.88;4.70;;;;;;;;;;5063354;28;20076;-66
2023/07/01 08:10:36;;;;;;;5.43;4.43;;;;;;;;;;5058246;28;20053;-68
2023/07/01 08:13:02;;;;;;;5.22;4.72;;;;;;;;;;5061106;28;20063;-68
2023/07/01 08:15:29;;;;;;;5.47;4.90;;;;;;;;;;5054794;28;20053;-68
2023/07/01 08:17:55;;;;;;;5.80;5.20;;;;;;;;;;5060836;28;20425;-68
2023/07/01 08:20:23;;;;;;;4.93;4.22;;;;;;;;;;5059489;28;20104;-68
2023/07/01 08:22:49;;;;;;;7.07;4.60;;;;;;;;;;5043556;28;20856;-69
2023/07/01 08:25:16;;;;;;;4.40;4.00;;;;;;;;;;5045098;28;20057;-68
2023/07/01 08:27:42;;;;;;;4.65;3.97;;;;;;;;;;5049935;28;20058;-68
2023/07/01 08:30:09;;;;;;;5.13;4.57;;;;;;;;;;5049172;28;20489;-67
2023/07/01 08:32:36;;;;;;;4.80;3.42;;;;;;;;;;5055569;28;20053;-67
2023/07/01 08:35:02;;;;;;;4.10;3.70;;;;;;;;;;5063977;28;20063;-68
2023/07/01 08:37:29;;;;;;;4.45;3.97;;;;;;;;;;5057224;28;20137;-67
2023/07/01 08:39:56;;;;;;;4.32;3.92;;;;;;;;;;5063245;28;20053;-67
2023/07/01 08:42:27;;;;;;;7.13;3.45;;;;;;;;;;5045679;28;20517;-67
2023/07/01 08:44:53;;;;;;;4.20;3.03;;;;;;;;;;5063365;28;20080;-68
2023/07/01 08:47:21;;;;;;;4.28;3.10;;;;;;;;;;5058683;28;20048;-68
2023/07/01 08:49:49;;;;;;;3.80;3.35;;;;;;;;;;5049278;28;20057;-68
2023/07/01 08:52:17;;;;;;;3.80;3.05;;;;;;;;;;5050256;28;20057;-68
2023/07/01 08:54:44;;;;;;;3.80;3.08;;;;;;;;;;5060360;28;20080;-67
2023/07/01 08:57:11;;;;;;;3.80;3.40;;;;;;;;;;5043809;28;20092;-67
2023/07/01 08:59:37;;;;;;;3.40;3.10;;;;;;;;;;5044367;28;20049;-67
2023/07/01 09:02:04;;;;;;;2.95;2.75;;;;;;;;;;5052696;28;20500;-68
2023/07/01 09:04:31;;;;;;;3.50;3.20;;;;;;;;;;5044354;28;20740;-67
2023/07/01 09:06:57;;;;;;;2.97;2.75;;;;;;;;;;5054404;28;20072;-67
2023/07/01 09:09:24;;;;;;;4.65;3.30;;;;;;;;;;5062776;28;20056;-67
2023/07/01 09:11:51;;;;;;;2.60;2.40;;;;;;;;;;5033416;28;20145;-67
2023/07/01 09:14:17;;;;;;;3.92;2.65;;;;;;;;;;5049688;28;20142;-68
2023/07/01 09:16:44;;;;;;;3.40;2.95;;;;;;;;;;5060710;28;20527;-67
2023/07/01 09:19:12;;;;;;;3.10;2.60;;;;;;;;;;5062547;28;20107;-67
2023/07/01 09:21:39;;;;;;;2.80;2.60;;;;;;;;;;5059238;28;20799;-67
2023/07/01 09:24:06;;;;;;;2.60;2.40;;;;;;;;;;5053253;28;20079;-67
2023/07/01 09:26:33;;;;;;;5.88;2.78;;;;;;;;;;5065546;28;20084;-69
2023/07/01 09:29:06;;;;;;;2.50;2.20;;;;;;;;;;5054377;28;20057;-67
2023/07/01 09:31:43;;;;;;;2.42;2.22;;;;;;;;;;5046167;28;20598;-68
2023/07/01 09:34:09;;;;;;;3.13;2.53;;;;;;;;;;5062455;28;20153;-68
2023/07/01 09:36:36;;;;;;;2.63;2.20;;;;;;;;;;5061617;28;20057;-69
2023/07/01 09:39:04;;;;;;;2.88;2.58;;;;;;;;;;5059440;28;20049;-68
2023/07/01 09:41:31;;;;;;;2.70;2.47;;;;;;;;;;5066320;28;20048;-68
2023/07/01 09:43:58;;;;;;;2.78;2.42;;;;;;;;;;5066339;28;20114;-67
2023/07/01 09:46:50;;;;;;;3.72;2.40;;;;;;;;;;5066079;28;20139;-67
2023/07/01 09:49:18;;;;;;;3.17;2.85;;;;;;;;;;5056929;28;20053;-68
2023/07/01 09:51:48;;;;;;;3.35;2.85;;;;;;;;;;5065609;28;20160;-68
2023/07/01 09:54:28;;;;;;;2.88;2.55;;;;;;;;;;5065925;28;20487;-67
2023/07/01 09:56:56;;;;;;;3.08;2.60;;;;;;;;;;5065820;28;20053;-67
2023/07/01 09:59:23;;;;;;;2.80;2.53;;;;;;;;;;5051345;28;20054;-68
2023/07/01 10:01:54;;;;;;;2.50;2.30;;;;;;;;;;5038112;28;20055;-68
2023/07/01 10:04:25;;;;;;;3.85;2.20;;;;;;;;;;5067939;28;20061;-68
2023/07/01 10:06:53;;;;;;;3.05;2.75;;;;;;;;;;5086236;28;20052;-67
2023/07/01 10:09:23;;;;;;;2.63;2.42;;;;;;;;;;5062333;28;21022;-68
2023/07/01 10:11:54;;;;;;;2.47;2.28;;;;;;;;;;5057353;28;20119;-68
2023/07/01 10:14:24;;;;;;;3.58;2.20;;;;;;;;;;5056116;28;20049;-67
2023/07/01 10:16:51;;;;;;;2.58;2.30;;;;;;;;;;5063467;28;20166;-69
2023/07/01 10:19:25;;;;;;;2.35;2.10;;;;;;;;;;5065753;28;20057;-68
2023/07/01 10:21:51;;;;;;;2.28;2.08;;;;;;;;;;5064292;28;20057;-68
2023/07/01 10:24:34;;;;;;;2.58;2.20;;;;;;;;;;5065530;28;20456;-68
2023/07/01 10:27:00;;;;;;;3.72;1.90;;;;;;;;;;5065112;28;20057;-67
2023/07/01 10:29:30;;;;;;;1.85;1.70;;;;;;;;;;5054479;28;20574;-68
2023/07/01 10:32:09;;;;;;;2.50;2.00;;;;;;;;;;5065889;28;20092;-68
2023/07/01 10:35:01;;;;;;;2.20;1.77;;;;;;;;;;5045044;28;20073;-68
2023/07/01 10:37:28;;;;;;;1.40;1.30;;;;;;;;;;5064157;28;20582;-69
2023/07/01 10:39:55;;;;;;;2.00;1.60;;;;;;;;;;5064318;28;20052;-68
2023/07/01 10:42:31;;;;;;;5.05;2.08;;;;;;;;;;5064713;28;20053;-69
2023/07/01 10:45:10;;;;;;;2.33;2.08;;;;;;;;;;5046943;28;20057;-68
2023/07/01 10:47:57;;;;;;;2.70;2.10;;;;;;;;;;5059634;28;20056;-69
2023/07/01 10:50:23;;;;;;;2.38;2.08;;;;;;;;;;5034158;28;20137;-69
2023/07/01 10:53:01;;;;;;;2.17;1.98;;;;;;;;;;5047255;28;20432;-68
2023/07/01 10:55:49;;;;;;;5.45;2.20;;;;;;;;;;5064876;28;20061;-70
2023/07/01 10:58:21;;;;;;;4.88;2.60;;;;;;;;;;5061071;28;20541;-70
2023/07/01 11:00:51;;;;;;;3.33;2.70;;;;;;;;;;5053628;28;20516;-71
2023/07/01 11:03:36;;;;;;;5.07;3.03;;;;;;;;;;5059429;28;20155;-70
2023/07/01 11:06:07;;;;;;;4.90;2.88;;;;;;;;;;5055332;28;20056;-72
2023/07/01 11:08:42;;;;;;;5.35;3.60;;;;;;;;;;5063933;28;20488;-70
2023/07/01 11:11:08;;;;;;;4.57;3.53;;;;;;;;;;5064329;28;20049;-72
2023/07/01 11:13:35;;;;;;;6.78;3.70;;;;;;;;;;5064342;28;20524;-73
2023/07/01 11:16:02;;;;;;;4.72;3.85;;;;;;;;;;5046088;28;20539;-71
2023/07/01 11:18:41;;;;;;;6.25;4.18;;;;;;;;;;5057293;28;20271;-71
2023/07/01 11:21:11;;;;;;;6.25;3.80;;;;;;;;;;5042489;28;20087;-70
2023/07/01 11:23:41;;;;;;;6.00;4.07;;;;;;;;;;5054702;28;20053;-69
2023/07/01 11:26:08;;;;;;;5.75;3.60;;;;;;;;;;5060709;28;20524;-69
2023/07/01 11:28:36;;;;;;;6.30;4.32;;;;;;;;;;5035456;28;20139;-70
2023/07/01 11:31:09;;;;;;;5.78;3.88;;;;;;;;;;5051791;28;20049;-71
2023/07/01 11:33:36;;;;;;;4.80;3.70;;;;;;;;;;5058290;28;20060;-71
2023/07/01 11:36:02;;;;;;;6.15;3.70;;;;;;;;;;5050526;28;20050;-70
2023/07/01 11:38:30;;;;;;;6.20;3.42;;;;;;;;;;5048491;28;20139;-70
2023/07/01 11:40:56;;;;;;;6.70;3.42;;;;;;;;;;5064381;28;20674;-69
2023/07/01 11:43:23;;;;;;;3.95;3.55;;;;;;;;;;5053885;28;20053;-71
2023/07/01 11:45:50;;;;;;;10.35;3.67;;;;;;;;;;5047340;28;20061;-71
2023/07/01 11:48:28;;;;;;;3.75;2.45;;;;;;;;;;5050974;28;20049;-73
2023/07/01 11:50:57;;;;;;;3.97;3.20;;;;;;;;;;5030504;28;20055;-68
2023/07/01 11:53:25;;;;;;;8.27;4.63;;;;;;;;;;5054539;28;20143;-65
2023/07/01 11:55:51;;;;;;;7.18;3.83;;;;;;;;;;5043223;28;20563;-66
2023/07/01 11:58:34;;;;;;;7.07;4.20;;;;;;;;;;5054641;28;20041;-67
2023/07/01 12:01:01;;;;;;;5.43;3.42;;;;;;;;;;5063500;28;20049;-68
2023/07/01 12:03:32;;;;;;;6.18;3.78;;;;;;;;;;5063702;28;20052;-67
2023/07/01 12:05:59;;;;;;;5.45;3.22;;;;;;;;;;5079853;28;20127;-67
2023/07/01 12:08:25;;;;;;;4.57;3.78;;;;;;;;;;5065061;28;20787;-68
2023/07/01 12:10:52;;;;;;;5.13;3.65;;;;;;;;;;5062842;28;20079;-67
2023/07/01 12:13:31;;;;;;;4.72;3.30;;;;;;;;;;5063445;28;20140;-68
2023/07/01 12:15:58;;;;;;;4.75;3.20;;;;;;;;;;5035147;28;20061;-67
2023/07/01 12:18:29;;;;;;;4.30;2.97;;;;;;;;;;5063041;28;20588;-67
2023/07/01 12:20:56;;;;;;;7.45;3.72;;;;;;;;;;5037026;28;20564;-68
2023/07/01 12:23:23;;;;;;;6.07;3.30;;;;;;;;;;5059042;28;20516;-67
2023/07/01 12:25:50;;;;;;;5.38;3.45;;;;;;;;;;5047248;28;20057;-67
2023/07/01 12:28:22;;;;;;;5.53;3.50;;;;;;;;;;5047397;28;20061;-67
2023/07/01 12:30:48;;;;;;;4.78;3.05;;;;;;;;;;5047240;28;20392;-67
2023/07/01 12:33:15;;;;;;;5.53;3.55;;;;;;;;;;5054347;28;20567;-67
2023/07/01 12:35:41;;;;;;;4.72;3.10;;;;;;;;;;5054083;28;20331;-67
2023/07/01 12:38:11;;;;;;;8.80;3.08;;;;;;;;;;5048653;28;20056;-67
2023/07/01 12:40:37;;;;;;;5.10;3.22;;;;;;;;;;5057959;28;20457;-67
2023/07/01 12:43:05;;;;;;;4.05;3.05;;;;;;;;;;5062882;28;20160;-67
2023/07/01 12:45:31;;;;;;;6.63;3.33;;;;;;;;;;5062618;28;20049;-66
2023/07/01 12:47:58;;;;;;;3.97;3.10;;;;;;;;;;5056505;28;20080;-68
2023/07/01 12:50:24;;;;;;;6.18;3.55;;;;;;;;;;5045270;28;20536;-67
2023/07/01 12:52:52;;;;;;;6.68;3.05;;;;;;;;;;5045955;28;20071;-66
2023/07/01 12:55:18;;;;;;;4.80;2.97;;;;;;;;;;5054342;28;20053;-67
2023/07/01 12:57:45;;;;;;;9.48;3.45;;;;;;;;;;5060424;28;20053;-67
2023/07/01 13:00:13;;;;;;;6.40;3.25;;;;;;;;;;5060113;28;20073;-67
2023/07/01 13:02:45;;;;;;;6.57;2.97;;;;;;;;;;5043469;28;20057;-66
2023/07/01 13:05:15;;;;;;;6.13;2.20;;;;;;;;;;5040053;28;20112;-67
2023/07/01 13:07:42;;;;;;;5.05;2.63;;;;;;;;;;5061741;28;20941;-67
2023/07/01 13:10:09;;;;;;;4.93;2.75;;;;;;;;;;5061533;28;20053;-67
2023/07/01 13:12:36;;;;;;;3.95;2.85;;;;;;;;;;5051251;28;20985;-67
2023/07/01 13:15:06;;;;;;;5.47;2.95;;;;;;;;;;5048696;28;20049;-67
2023/07/01 13:17:37;;;;;;;3.83;2.42;;;;;;;;;;5044514;28;20445;-67
2023/07/01 13:20:04;;;;;;;6.20;2.72;;;;;;;;;;5061573;28;20106;-66
2023/07/01 13:22:31;;;;;;;4.97;3.08;;;;;;;;;;5051048;28;20049;-67
2023/07/01 13:24:57;;;;;;;4.30;2.45;;;;;;;;;;5044168;28;20564;-66
2023/07/01 13:27:24;;;;;;;3.10;2.20;;;;;;;;;;5049640;28;20140;-67
2023/07/01 13:29:52;;;;;;;4.38;2.45;;;;;;;;;;5060140;28;20100;-67
2023/07/01 13:32:21;;;;;;;3.53;2.47;;;;;;;;;;5030094;28;20081;-67
2023/07/01 13:34:47;;;;;;;4.07;2.20;;;;;;;;;;5046284;28;20376;-67
2023/07/01 13:37:19;;;;;;;6.38;2.17;;;;;;;;;;5057961;28;20045;-66
2023/07/01 13:39:49;;;;;;;4.05;1.77;;;;;;;;;;5062240;28;20053;-67
2023/07/01 13:42:25;;;;;;;3.53;1.58;;;;;;;;;;5048985;28;20524;-67
2023/07/01 13:44:52;;;;;;;1.70;1.38;;;;;;;;;;5045403;28;20045;-66
2023/07/01 13:47:44;;;;;;;3.08;1.30;;;;;;;;;;5042550;28;20060;-67
2023/07/01 13:50:20;;;;;;;1.60;1.50;;;;;;;;;;5050809;28;20049;-67
2023/07/01 13:52:46;;;;;;;2.25;1.50;;;;;;;;;;5043848;28;20049;-66
2023/07/01 13:55:16;;;;;;;2.85;1.90;;;;;;;;;;5046146;28;20155;-67
2023/07/01 13:57:45;;;;;;;1.40;1.30;;;;;;;;;;5043402;28;20049;-67
2023/07/01 14:00:27;;;;;;;2.28;1.90;;;;;;;;;;5056159;28;20048;-68
2023/07/01 14:02:53;;;;;;;2.00;1.90;;;;;;;;;;5048489;28;20591;-67
2023/07/01 14:05:23;;;;;;;7.18;2.17;;;;;;;;;;5069530;28;20080;-67
2023/07/01 14:08:00;;;;;;;1.80;1.70;;;;;;;;;;5040758;28;20575;-67
2023/07/01 14:10:28;;;;;;;2.30;1.98;;;;;;;;;;5047408;28;20056;-67
2023/07/01 14:12:56;;;;;;;4.40;1.98;;;;;;;;;;5058192;28;20053;-67
2023/07/01 14:15:32;;;;;;;3.00;2.28;;;;;;;;;;5063738;28;20104;-67
2023/07/01 14:17:58;;;;;;;2.30;2.10;;;;;;;;;;5050669;28;20088;-66
2023/07/01 14:20:25;;;;;;;3.20;2.28;;;;;;;;;;5056540;28;20138;-66
2023/07/01 14:22:57;;;;;;;79.10;6.20;;;;;;;;;;5061978;28;20114;-67
2023/07/01 14:25:29;;;;;;;4.75;2.28;;;;;;;;;;5050326;28;20052;-67
2023/07/01 14:27:57;;;;;;;2.95;1.90;;;;;;;;;;5048330;28;20399;-73
2023/07/01 15:49:53;;;;;;;10.80;4.35;;;;;;;;;;5111533;27;20353;-55
2023/07/01 15:52:20;;;;;;;7.43;4.13;;;;;;;;;;5098649;27;20474;-56
2023/07/01 15:54:46;;;;;;;6.45;3.65;;;;;;;;;;5099303;27;20052;-52
2023/07/01 15:57:13;;;;;;;2.63;2.40;;;;;;;;;;5098656;27;20053;-56
2023/07/01 15:59:40;;;;;;;4.57;3.22;;;;;;;;;;5098219;27;20059;-54
2023/07/01 16:02:08;;;;;;;4.57;2.38;;;;;;;;;;5097884;27;20667;-55
2023/07/01 16:04:35;;;;;;;2.42;2.00;;;;;;;;;;5098015;27;20079;-55
2023/07/01 16:07:08;;;;;;;6.38;3.13;;;;;;;;;;5097411;27;20526;-56
2023/07/01 16:09:40;;;;;;;3.17;2.30;;;;;;;;;;5099169;28;20054;-55